Thunder radar more information blitzortung!


Radar de pluja more information rain snow radar


Visita la nostra xarxa de llocs de meteo:

Template documentation
and downloads

And another site



No particular awareness of the weather is required.    There are no Weather-warnings

Pagina Historial Weather Underground text

Diari Resum Juny 10, 2017 Unitats:  Imperial    Mètric   Tant
« Previous Dia
SegĂźent Dia »
Diari Setmana Mensual Anual Personalitzada
  Maxima: Minima: Media:
Temperatura: 92.3 °F 59.7 °F 79 °F
Punt de rosada: 62.2 °F 46 °F 52.3 °F
Humitat: 82 % 24 % 43 %
Wind Speed: 10.7 mph 0 mph 3.9 mph
RĂ fegues de vent: 10.7 mph - -
Vent:- - SSW
Pression baro: 30.1 in 30 in -
Precipitacions: 0 in    
Historical Graphs
 
 
Dades de taula per Juny 10, 2017
Temps Temperatura Punt de rosada Pression baro Vent Wind Speed RĂ fegues de vent Humitat Rainfall Rate (Hourly)
00:00 62.2 °F 56.7 °F 30.1 in Calm     82 % 0 in
00:01 67.5 °F 58.5 °F 30.1 in NNW 1.2 mph   73 % 0 in
00:06 67.3 °F 58.6 °F 30.1 in NNE 1.2 mph 1.2 mph 74 % 0 in
00:10 61.9 °F 55.9 °F 30.1 in WNW 1 mph 2 mph 81 % 0 in
00:20 61.7 °F 55.8 °F 30.1 in Calm   2 mph 81 % 0 in
00:30 60.8 °F 54.7 °F 30.1 in WNW 1 mph 2 mph 80 % 0 in
00:40 60.4 °F 54 °F 30.1 in WSW 1 mph 2 mph 79 % 0 in
00:50 60.1 °F 53.4 °F 30.1 in Calm   2 mph 79 % 0 in
01:00 60.1 °F 53.4 °F 30.1 in Calm   2 mph 79 % 0 in
01:10 60.1 °F 53.4 °F 30.1 in WSW 1 mph 2 mph 79 % 0 in
01:20 59.9 °F 53.4 °F 30.1 in WSW 1 mph 1 mph 79 % 0 in
01:30 59.7 °F 53.2 °F 30.1 in WSW 1 mph 2 mph 79 % 0 in
01:40 59.9 °F 53.4 °F 30.1 in Calm   2 mph 79 % 0 in
01:50 59.7 °F 53.2 °F 30.1 in SW 2 mph 3 mph 79 % 0 in
02:00 59.7 °F 53.2 °F 30.1 in SW 2 mph 3 mph 79 % 0 in
02:10 59.9 °F 53.4 °F 30.1 in SW 2 mph 2 mph 79 % 0 in
02:20 60.3 °F 53.8 °F 30.1 in SW 1 mph 2 mph 79 % 0 in
02:30 61.2 °F 54.7 °F 30.1 in Calm   1 mph 79 % 0 in
02:40 63.5 °F 56.8 °F 30.1 in Calm     79 % 0 in
02:50 65.8 °F 58.5 °F 30.1 in Calm   1 mph 77 % 0 in
03:00 66.9 °F 58.5 °F 30.1 in Calm     74 % 0 in
03:10 67.5 °F 58.5 °F 30.1 in SE 1 mph 2 mph 73 % 0 in
03:20 66.7 °F 57.4 °F 30.1 in SSW 2 mph 2 mph 72 % 0 in
03:30 67.1 °F 57.7 °F 30.1 in SW 1 mph 2 mph 72 % 0 in
03:40 68.5 °F 58.5 °F 30.1 in SW 1 mph 2 mph 70 % 0 in
03:50 70.5 °F 59.4 °F 30.1 in Calm   2 mph 68 % 0 in
04:00 71.6 °F 59.2 °F 30.1 in ESE 1 mph 2 mph 65 % 0 in
04:10 72.3 °F 59.9 °F 30.1 in Calm   4 mph 65 % 0 in
04:20 72.7 °F 59.4 °F 30.1 in SSW 1 mph 2 mph 63 % 0 in
04:30 73.4 °F 60.1 °F 30.1 in SW 2 mph 2 mph 63 % 0 in
04:40 74.1 °F 60.3 °F 30.1 in SW 1 mph 3 mph 62 % 0 in
04:50 75.2 °F 60.4 °F 30.1 in West 2 mph 2 mph 60 % 0 in
05:00 76.6 °F 61.2 °F 30.1 in Calm   3 mph 59 % 0 in
05:10 77 °F 61.2 °F 30.1 in NE 1 mph 2 mph 58 % 0 in
05:20 77.7 °F 60.3 °F 30.1 in ENE 2 mph 3 mph 55 % 0 in
05:30 79.2 °F 61.2 °F 30.1 in SE 2 mph 2 mph 54 % 0 in
05:40 80.4 °F 62.2 °F 30.1 in SSE 1 mph 3 mph 54 % 0 in
05:50 81.7 °F 61.9 °F 30.1 in SSE 1 mph 2 mph 51 % 0 in
10:56 81.9 °F 60.3 °F 30.1 in SSE 2.3 mph 2.3 mph 48 % 0 in
11:01 81.7 °F 58.8 °F 30.1 in ESE 3.5 mph 3.5 mph 46 % 0 in
11:06 82.4 °F 60.6 °F 30.1 in West 2.3 mph 2.3 mph 48 % 0 in
11:11 83.8 °F 61.5 °F 30.1 in WSW 1.6 mph 1.6 mph 47 % 0 in
11:16 84.2 °F 61.2 °F 30.1 in WSW 2.3 mph 2.3 mph 46 % 0 in
11:21 84.2 °F 60.6 °F 30.1 in WSW 4.3 mph 4.3 mph 45 % 0 in
11:26 84.2 °F 59.9 °F 30.1 in SSW 4.6 mph 4.6 mph 44 % 0 in
11:31 85.1 °F 60.1 °F 30.1 in SW 4.6 mph 4.6 mph 43 % 0 in
11:36 84.7 °F 59.7 °F 30.1 in SW 3.5 mph 3.5 mph 43 % 0 in
11:41 85.6 °F 59.9 °F 30.1 in WNW 2.3 mph 2.3 mph 42 % 0 in
11:46 85.8 °F 58.6 °F 30.1 in WSW 1.2 mph 1.6 mph 40 % 0 in
11:51 86 °F 58.3 °F 30.1 in SW 5.8 mph 5.8 mph 39 % 0 in
11:56 86.9 °F 58.3 °F 30.1 in SW 2.3 mph 2.3 mph 38 % 0 in
12:01 87.1 °F 56.1 °F 30.1 in SSE 3.5 mph 3.5 mph 35 % 0 in
12:06 86 °F 54.3 °F 30.1 in South 2.4 mph 2.4 mph 34 % 0 in
12:11 86.7 °F 55 °F 30.1 in ESE 3.1 mph 3.1 mph 34 % 0 in
12:16 85.6 °F 54.9 °F 30.1 in East 4.6 mph 4.6 mph 35 % 0 in
12:21 86.4 °F 55.6 °F 30.1 in SE 5.8 mph 5.8 mph 35 % 0 in
12:26 86.7 °F 58.1 °F 30.1 in SW 6.9 mph 6.9 mph 38 % 0 in
12:27 86.7 °F 58.1 °F 30.1 in SW 6.9 mph 6.9 mph 38 % 0 in
12:32 87.6 °F 58.8 °F 30.1 in West 5.8 mph 5.8 mph 38 % 0 in
12:37 87.6 °F 57.4 °F 30.1 in WSW 3.5 mph 3.5 mph 36 % 0 in
12:42 87.8 °F 57.6 °F 30.1 in ESE 3.5 mph 3.6 mph 36 % 0 in
12:47 87.8 °F 57.6 °F 30 in WSW 4.6 mph 4.6 mph 36 % 0 in
12:52 87.6 °F 57.4 °F 30 in East 2.3 mph 2.3 mph 36 % 0 in
12:57 88.3 °F 57.9 °F 30 in SE 2.3 mph 2.3 mph 36 % 0 in
13:02 88.7 °F 58.3 °F 30 in SW 6.9 mph 6.9 mph 36 % 0 in
13:07 89.1 °F 57 °F 30 in SSE 3.5 mph 3.5 mph 34 % 0 in
13:12 89.2 °F 57.9 °F 30 in SW 2.6 mph 2.6 mph 35 % 0 in
13:17 90.3 °F 59 °F 30 in SSW 2.6 mph 2.6 mph 35 % 0 in
13:22 89.8 °F 57.7 °F 30 in NNE 3.5 mph 3.5 mph 34 % 0 in
13:27 89.6 °F 56.7 °F 30 in South 2.3 mph 2.3 mph 33 % 0 in
13:32 89.2 °F 55.6 °F 30 in ESE 4.6 mph 4.6 mph 32 % 0 in
13:37 88.7 °F 55 °F 30 in East 6 mph 6 mph 32 % 0 in
13:42 89.6 °F 55.8 °F 30 in East 4.6 mph 4.6 mph 32 % 0 in
13:47 88.5 °F 55.8 °F 30 in NE 5.8 mph 5.8 mph 33 % 0 in
13:52 88 °F 55.2 °F 30 in ESE 8.1 mph 8.1 mph 33 % 0 in
13:57 87.1 °F 53.6 °F 30 in ENE 10.4 mph 10.4 mph 32 % 0 in
14:02 87.3 °F 52.9 °F 30 in SSE 5.8 mph 5.8 mph 31 % 0 in
14:07 87.4 °F 54 °F 30 in ESE 9.2 mph 9.2 mph 32 % 0 in
14:12 87.1 °F 52 °F 30 in SSE 9.2 mph 9.2 mph 30 % 0 in
14:17 87.6 °F 52.3 °F 30 in ESE 9.2 mph 9.2 mph 30 % 0 in
14:22 86.9 °F 50.7 °F 30 in ESE 10.4 mph 10.4 mph 29 % 0 in
14:27 87.1 °F 52 °F 30 in ESE 8.5 mph 8.5 mph 30 % 0 in
14:32 86.5 °F 50.5 °F 30 in East 5.8 mph 6.2 mph 29 % 0 in
14:37 86.7 °F 50.7 °F 30 in East 6.9 mph 6.9 mph 29 % 0 in
14:42 87.6 °F 51.4 °F 30 in SE 8.1 mph 8.1 mph 29 % 0 in
14:47 87.6 °F 51.4 °F 30 in ESE 5.8 mph 5.8 mph 29 % 0 in
14:52 87.6 °F 51.4 °F 30 in SW 8.1 mph 8.1 mph 29 % 0 in
14:57 89.6 °F 52.2 °F 30 in SW 4.6 mph 4.6 mph 28 % 0 in
15:02 91.2 °F 53.6 °F 30 in South 4.6 mph 4.6 mph 28 % 0 in
15:07 90.7 °F 53.1 °F 30 in SSE 3.5 mph 3.5 mph 28 % 0 in
15:12 90.9 °F 52.3 °F 30 in South 3.5 mph 3.5 mph 27 % 0 in
15:17 90.9 °F 52.3 °F 30 in NNW 5.8 mph 5.8 mph 27 % 0 in
15:22 91.4 °F 52.7 °F 30 in SW 6.2 mph 6.2 mph 27 % 0 in
15:27 91.9 °F 53.2 °F 30 in WSW 5.6 mph 5.6 mph 27 % 0 in
15:32 92.1 °F 52.3 °F 30 in SSW 5.9 mph 5.9 mph 26 % 0 in
15:37 91.6 °F 51.8 °F 30 in SW 5.8 mph 5.8 mph 26 % 0 in
15:42 91.6 °F 50.7 °F 30 in South 8.1 mph 8.1 mph 25 % 0 in
15:47 92.3 °F 52.5 °F 30 in South 6.9 mph 6.9 mph 26 % 0 in
15:52 91.2 °F 50.5 °F 30 in South 6.9 mph 6.9 mph 25 % 0 in
15:57 90.7 °F 48.9 °F 30 in SW 9.8 mph 9.8 mph 24 % 0 in
16:02 90.1 °F 49.6 °F 30 in SW 9.2 mph 9.2 mph 25 % 0 in
16:07 90 °F 49.5 °F 30 in SSW 6.4 mph 6.4 mph 25 % 0 in
16:12 90.5 °F 49.8 °F 30 in WSW 7.6 mph 7.6 mph 25 % 0 in
16:17 90.7 °F 50 °F 30 in SW 8.1 mph 8.1 mph 25 % 0 in
16:22 89.8 °F 49.3 °F 30 in WSW 6.9 mph 6.9 mph 25 % 0 in
16:27 89.4 °F 50 °F 30 in South 10.4 mph 10.4 mph 26 % 0 in
16:32 89.6 °F 49.1 °F 30 in WSW 10.4 mph 10.4 mph 25 % 0 in
16:37 89.4 °F 50 °F 30 in SW 6.9 mph 6.9 mph 26 % 0 in
16:42 89.1 °F 49.6 °F 30 in WSW 10.4 mph 10.4 mph 26 % 0 in
16:47 89.4 °F 50 °F 30 in SW 9.7 mph 9.7 mph 26 % 0 in
16:52 90 °F 49.5 °F 30 in SW 4.7 mph 4.7 mph 25 % 0 in
16:57 89.4 °F 50 °F 30 in SSW 10.4 mph 10.4 mph 26 % 0 in
17:02 89.4 °F 50 °F 30 in SW 7.8 mph 7.8 mph 26 % 0 in
17:07 89.6 °F 49.1 °F 30 in SSW 5.8 mph 5.8 mph 25 % 0 in
17:12 89.4 °F 50 °F 30 in SW 8.1 mph 8.1 mph 26 % 0 in
17:17 88.7 °F 48.4 °F 30 in SW 6.9 mph 6.9 mph 25 % 0 in
17:22 88.7 °F 49.5 °F 30 in WSW 5.9 mph 5.9 mph 26 % 0 in
17:27 88.5 °F 49.3 °F 30 in SW 10.7 mph 10.7 mph 26 % 0 in
17:32 88.2 °F 48.9 °F 30 in SSW 10.4 mph 10.4 mph 26 % 0 in
17:37 88.2 °F 48.9 °F 30 in WNW 5.8 mph 5.8 mph 26 % 0 in
17:42 88.2 °F 48.9 °F 30 in SW 8.1 mph 8.1 mph 26 % 0 in
17:47 88.2 °F 48.9 °F 30 in SW 4 mph 4 mph 26 % 0 in
17:52 87.6 °F 48.6 °F 30 in SW 10.4 mph 10.4 mph 26 % 0 in
17:57 88 °F 49.8 °F 30 in South 5.8 mph 5.8 mph 27 % 0 in
18:02 88.3 °F 50.2 °F 30 in SSW 4.6 mph 4.6 mph 27 % 0 in
18:07 88.3 °F 50.2 °F 30 in South 6.9 mph 6.9 mph 27 % 0 in
18:12 88.3 °F 50.2 °F 30 in WSW 7.8 mph 7.8 mph 27 % 0 in
18:17 88.2 °F 50 °F 30 in SW 7.4 mph 7.4 mph 27 % 0 in
18:18 88 °F 49.8 °F 30 in SW 6.9 mph 6.9 mph 27 % 0 in
18:23 87.3 °F 49.3 °F 30 in SW 6.2 mph 6.2 mph 27 % 0 in
18:28 87.8 °F 49.6 °F 30 in SSW 4.9 mph 4.9 mph 27 % 0 in
18:33 86.5 °F 48.6 °F 30 in South 8.1 mph 8.1 mph 27 % 0 in
18:38 86 °F 48 °F 30 in SSW 5.8 mph 5.8 mph 27 % 0 in
18:43 86.5 °F 49.6 °F 30 in SSW 6.9 mph 6.9 mph 28 % 0 in
18:48 86 °F 49.1 °F 30 in SW 10.4 mph 10.4 mph 28 % 0 in
18:53 85.6 °F 48.7 °F 30 in SW 5.8 mph 5.8 mph 28 % 0 in
18:58 85.5 °F 48.6 °F 30 in South 8.1 mph 8.1 mph 28 % 0 in
19:03 84.9 °F 48.2 °F 30 in SW 6.2 mph 6.2 mph 28 % 0 in
19:08 84.6 °F 47.8 °F 30 in SSW 4.6 mph 4.6 mph 28 % 0 in
19:13 84.4 °F 47.7 °F 30 in SW 10.7 mph 10.7 mph 28 % 0 in
19:18 84 °F 48.4 °F 30 in South 6.9 mph 6.9 mph 29 % 0 in
19:20 71.1 °F 50.4 °F 30.1 in WSW 2 mph 2 mph 48 % 0 in
19:23 84 °F 48.4 °F 30 in WSW 5.8 mph 5.8 mph 29 % 0 in
19:24 84 °F 48.4 °F 30 in SSW 4 mph 4 mph 29 % 0 in
19:29 83.3 °F 47.7 °F 30 in WSW 8.1 mph 8.1 mph 29 % 0 in
19:30 70.7 °F 50.5 °F 30.1 in WSW 1 mph 2 mph 49 % 0 in
19:34 82.8 °F 47.3 °F 30 in WSW 6.7 mph 6.7 mph 29 % 0 in
19:40 70.5 °F 51.1 °F 30.1 in WSW 1 mph 2 mph 50 % 0 in
19:44 82.2 °F 47.7 °F 30 in SSW 6.9 mph 6.9 mph 30 % 0 in
19:49 81.9 °F 47.5 °F 30 in WSW 9.2 mph 9.2 mph 30 % 0 in
19:54 81.5 °F 47.1 °F 30 in South 8.1 mph 8.1 mph 30 % 0 in
19:59 81.1 °F 46.8 °F 30 in SW 6.9 mph 6.9 mph 30 % 0 in
20:00 70.2 °F 52.2 °F 30.1 in Calm   2 mph 53 % 0 in
20:04 80.8 °F 46.4 °F 30 in WSW 5.8 mph 5.8 mph 30 % 0 in
20:09 80.6 °F 46.2 °F 30 in WSW 4.6 mph 4.6 mph 30 % 0 in
20:10 69.6 °F 52.7 °F 30.1 in Calm     55 % 0 in
20:14 80.4 °F 46 °F 30 in SW 4.6 mph 4.6 mph 30 % 0 in
20:19 80.2 °F 46.9 °F 30 in SSW 4.6 mph 4.6 mph 31 % 0 in
20:20 69.1 °F 52.2 °F 30.1 in Calm     55 % 0 in
20:24 79.9 °F 46.6 °F 30 in SSW 3.5 mph 3.5 mph 31 % 0 in
20:29 79.7 °F 46.4 °F 30 in SSW 4 mph 4 mph 31 % 0 in
20:30 68.7 °F 52.3 °F 30.1 in Calm   2 mph 56 % 0 in
20:34 79.3 °F 46 °F 30 in WSW 4.3 mph 4.3 mph 31 % 0 in
20:39 79 °F 46.6 °F 30 in WSW 3.5 mph 3.5 mph 32 % 0 in
20:40 68.4 °F 53.1 °F 30.1 in Calm     58 % 0 in
20:44 78.6 °F 46.2 °F 30 in SW 8.1 mph 8.1 mph 32 % 0 in
20:49 78.3 °F 46 °F 30 in SW 4.9 mph 4.9 mph 32 % 0 in
20:50 68.4 °F 53.4 °F 30.1 in Calm     59 % 0 in
20:54 78.1 °F 46.6 °F 30 in SW 3.8 mph 3.8 mph 33 % 0 in
20:59 77.7 °F 46.2 °F 30 in SSW 5.8 mph 5.8 mph 33 % 0 in
21:00 68.7 °F 53.8 °F 30.1 in WSW 1 mph 2 mph 59 % 0 in
21:04 77.5 °F 46.2 °F 30 in SW 5.8 mph 5.8 mph 33 % 0 in
21:09 77.2 °F 46.6 °F 30 in SSW 2.6 mph 2.6 mph 34 % 0 in
21:10 69.1 °F 53.8 °F 30 in West 2 mph 2 mph 58 % 0 in
21:14 76.8 °F 47.1 °F 30 in SSW 2.6 mph 2.6 mph 35 % 0 in
21:19 76.5 °F 46.8 °F 30 in SSW 6.9 mph 6.9 mph 35 % 0 in
21:20 69.3 °F 54.3 °F 30 in WSW 1 mph 2 mph 59 % 0 in
21:24 76.1 °F 47.1 °F 30 in SW 4.6 mph 4.6 mph 36 % 0 in
21:29 75.9 °F 46.9 °F 30 in SW 2.9 mph 2.9 mph 36 % 0 in
21:30 69.1 °F 54.1 °F 30 in Calm   1 mph 59 % 0 in
21:34 75.6 °F 47.5 °F 30 in SSW 1.4 mph 2.2 mph 37 % 0 in
21:39 75.2 °F 47.1 °F 30 in SW 2.6 mph 2.6 mph 37 % 0 in
21:40 68.2 °F 53.8 °F 30 in West 1 mph 2 mph 60 % 0 in
21:44 75 °F 46.9 °F 30 in SW 3.5 mph 3.5 mph 37 % 0 in
21:50 67.5 °F 54 °F 30 in North 1 mph 1 mph 62 % 0 in
21:54 74.5 °F 47.1 °F 30 in SW 3.5 mph 3.5 mph 38 % 0 in
21:59 74.3 °F 47.7 °F 30 in WSW 2.3 mph 2.3 mph 39 % 0 in
22:00 66.9 °F 53.4 °F 30 in Calm   1 mph 62 % 0 in
22:04 74.1 °F 47.7 °F 30 in WSW 2.3 mph 2.3 mph 39 % 0 in
22:09 73.9 °F 47.5 °F 30 in WSW 3.5 mph 3.5 mph 39 % 0 in
22:10 66.4 °F 53.4 °F 30 in Calm     63 % 0 in
22:14 73.8 °F 47.8 °F 30 in WSW 2.3 mph 2.3 mph 40 % 0 in
22:19 73.4 °F 47.7 °F 30 in WSW 2.3 mph 2.3 mph 40 % 0 in
22:20 65.8 °F 53.8 °F 30 in Calm     65 % 0 in
22:24 73.2 °F 48.7 °F 30 in WSW 1.4 mph 1.4 mph 42 % 0 in
22:29 73 °F 48.6 °F 30 in WSW 1.2 mph 1.2 mph 42 % 0 in
22:30 65.3 °F 52.9 °F 30 in North 1 mph 1 mph 64 % 0 in
22:34 72.7 °F 48.9 °F 30 in WSW 2.3 mph 2.3 mph 43 % 0 in
22:39 72.7 °F 48.9 °F 30 in WSW 1.2 mph 1.2 mph 43 % 0 in
22:40 64.6 °F 52.2 °F 30 in West 1 mph 2 mph 64 % 0 in
22:44 72.5 °F 48.7 °F 30 in West 2.6 mph 2.6 mph 43 % 0 in
22:49 72.3 °F 49.3 °F 30 in SW 2.3 mph 2.3 mph 44 % 0 in
22:50 64.4 °F 52 °F 30 in Calm   1 mph 64 % 0 in
22:54 72.1 °F 49.6 °F 30 in SW 1.2 mph 1.2 mph 45 % 0 in
22:59 72 °F 49.5 °F 30 in WSW 1.6 mph   45 % 0 in
23:00 64.4 °F 52 °F 30 in SW 1 mph 2 mph 64 % 0 in
23:04 71.8 °F 49.3 °F 30 in WSW 1.2 mph 1.2 mph 45 % 0 in
23:09 71.8 °F 49.8 °F 30 in WSW 1.6 mph   46 % 0 in
23:10 64.4 °F 52 °F 30 in Calm     64 % 0 in
23:14 71.6 °F 49.6 °F 30 in WSW 2.3 mph   46 % 0 in
23:19 71.6 °F 49.6 °F 30.1 in West 2.3 mph 2.3 mph 46 % 0 in
23:20 64.2 °F 51.8 °F 30 in South 1 mph 2 mph 64 % 0 in
23:24 71.6 °F 49.6 °F 30.1 in West 1.6 mph 1.6 mph 46 % 0 in
23:29 71.6 °F 49.6 °F 30.1 in WSW 2.3 mph 2.3 mph 46 % 0 in
23:30 64 °F 51.6 °F 30 in Calm   1 mph 64 % 0 in
23:34 71.6 °F 50.4 °F 30.1 in West 2 mph 2 mph 47 % 0 in
23:39 71.4 °F 50.2 °F 30.1 in West 2.3 mph 2.3 mph 47 % 0 in
23:40 64 °F 51.3 °F 30 in SW 1 mph 2 mph 63 % 0 in
23:44 71.4 °F 50.2 °F 30.1 in WSW 2.3 mph 2.3 mph 47 % 0 in
23:49 71.4 °F 50.2 °F 30.1 in WSW 2.3 mph 2.3 mph 47 % 0 in
23:50 63.7 °F 50.4 °F 30 in Calm   1 mph 62 % 0 in
23:54 71.4 °F 50.7 °F 30.1 in WSW 1.6 mph 1.6 mph 48 % 0 in
23:59 71.4 °F 50.7 °F 30.1 in West 2.3 mph 2.3 mph 48 % 0 in
Meteo Sesrovires
Elogis d' Weather Underground - 3.75 mb

Guio original per  Jim McMurry - jmcmurry@mwt.net Adaptat per a la plantilla per  Wim van der Kuil - Leuven-Template.eu

Trobareu la nostra informacio del temps tambe a:

Weather Underground

AWEKAS